Data for 10/26/2015

Time Sea-Level Adjusted Pressure Absolute Pressure Temperature Relative Humidity Dew Point   
(mb) (inHg) (mb) (inHg) (C) (F) (%) (C) (F)
00:05 1017 30.03 847 25.01 6.1 43 68 0.7 33.3
00:10 1017 30.03 846 24.98 6 42.9 69 0.8 33.4
00:15 1017 30.03 846 24.98 6 42.8 67 0.3 32.6
00:20 1017 30.03 846 24.98 6.1 43 67 0.4 32.7
00:25 1017 30.03 846 24.98 6 42.8 67 0.3 32.6
00:30 1017 30.03 846 24.98 6 42.7 67 0.3 32.5
00:35 1017 30.03 846 24.98 6.1 42.9 64 -0.1 31.7
00:40 1017 30.03 846 24.98 6.2 43.2 64 -0.2 31.7
00:45 1017 30.03 846 24.98 6.3 43.4 63 -0.3 31.5
00:50 1017 30.03 846 24.98 6.3 43.4 63 -0.2 31.7
00:55 1017 30.03 846 24.98 6.3 43.4 63 -0.2 31.7
01:00 1017 30.03 846 24.98 6.4 43.5 62 -0.4 31.3
01:05 1017 30.03 846 24.98 6.5 43.8 61 -0.5 31.1
01:10 1017 30.03 846 24.98 6.6 43.9 61 -0.4 31.3
01:15 1017 30.03 846 24.98 6.5 43.8 62 -0.2 31.6
01:20 1017 30.03 846 24.98 6.5 43.7 62 -0.3 31.5
01:25 1017 30.03 846 24.98 6.6 43.8 61 -0.3 31.4
01:30 1017 30.03 846 24.98 6.6 43.9 62 -0.2 31.6
01:35 1017 30.03 846 24.98 6.6 43.8 61 -0.4 31.3
01:40 1017 30.03 846 24.98 6.6 44 61 -0.3 31.5
01:45 1017 30.03 846 24.98 6.7 44.1 61 -0.3 31.5
01:50 1017 30.03 846 24.98 6.8 44.3 61 -0.2 31.7
01:55 1017 30.03 846 24.98 6.9 44.4 61 -0.1 31.9
02:00 1017 30.03 846 24.98 7 44.5 61 0.1 32.1
02:05 1017 30.03 846 24.98 7 44.5 62 0.2 32.3
02:10 1017 30.03 846 24.98 6.9 44.4 63 0.4 32.6
02:15 1017 30.03 846 24.98 6.8 44.3 63 0.2 32.4
02:20 1016 30 846 24.98 6.8 44.3 62 0.1 32.3
02:25 1017 30.03 846 24.98 6.8 44.2 63 0.3 32.5
02:30 1017 30.03 846 24.98 6.7 44.1 63 0.2 32.4
02:35 1017 30.03 846 24.98 6.7 44.1 64 0.4 32.7
02:40 1017 30.03 846 24.98 6.6 43.9 64 0.3 32.6
02:45 1017 30.03 846 24.98 6.6 43.9 64 0.4 32.7
02:50 1017 30.03 846 24.98 6.6 43.9 65 0.5 32.9
02:55 1017 30.03 846 24.98 6.5 43.8 65 0.5 33
03:00 1017 30.03 846 24.98 6.5 43.8 66 0.6 33
03:05 1017 30.03 846 24.98 6.5 43.7 66 0.7 33.2
03:10 1017 30.03 846 24.98 6.5 43.7 66 0.7 33.2
03:15 1017 30.03 846 24.98 6.5 43.7 66 0.6 33.2
03:20 1017 30.03 846 24.98 6.6 43.9 66 0.8 33.5
03:25 1017 30.03 846 24.98 6.7 44 67 1.1 34
03:30 1017 30.03 847 25.01 6.6 43.9 68 1.2 34.1
03:35 1017 30.03 847 25.01 6.6 43.9 69 1.3 34.3
03:40 1017 30.03 846 24.98 6.6 43.9 68 1.3 34.3
03:45 1017 30.03 846 24.98 6.7 44 68 1.1 34.1
03:50 1017 30.03 847 25.01 6.7 44 70 1.5 34.7
03:55 1017 30.03 847 25.01 6.2 43.1 71 1.3 34.3
04:00 1017 30.03 846 24.98 5.9 42.7 73 1.5 34.6
04:05 1017 30.03 846 24.98 5.8 42.4 74 1.5 34.7
04:10 1017 30.03 846 24.98 5.6 42.1 76 1.7 35
04:15 1017 30.03 846 24.98 5.3 41.6 77 1.6 34.9
04:20 1017 30.03 846 24.98 5.4 41.7 77 1.6 34.9
04:25 1017 30.03 846 24.98 5.4 41.7 75 1.4 34.5
04:30 1017 30.03 846 24.98 5.5 41.8 75 1.4 34.6
04:35 1017 30.03 846 24.98 5.4 41.7 75 1.4 34.5
04:40 1017 30.03 846 24.98 5.2 41.3 77 1.5 34.6
04:45 1017 30.03 846 24.98 5 41 78 1.5 34.6
04:50 1017 30.03 846 24.98 4.9 40.8 79 1.6 34.8
04:55 1017 30.03 846 24.98 4.7 40.4 80 1.5 34.8
05:00 1017 30.03 846 24.98 4.5 40.2 80 1.5 34.7
05:05 1017 30.03 846 24.98 4.6 40.3 80 1.5 34.6
05:10 1017 30.03 846 24.98 4.6 40.3 80 1.5 34.8
05:15 1017 30.03 846 24.98 4.6 40.4 80 1.5 34.6
05:20 1017 30.03 846 24.98 4.8 40.7 79 1.5 34.8
05:25 1016 30 846 24.98 4.9 40.8 79 1.5 34.7
05:30 1016 30 846 24.98 5 40.9 79 1.6 34.9
05:35 1017 30.03 846 24.98 4.9 40.9 79 1.6 34.9
05:40 1017 30.03 846 24.98 4.9 40.8 79 1.6 34.8
05:45 1017 30.03 846 24.98 4.9 40.8 79 1.5 34.7
05:50 1017 30.03 846 24.98 5 41 79 1.6 34.9
05:55 1017 30.03 846 24.98 5.1 41.2 78 1.7 35.1
06:00 1017 30.03 846 24.98 5.3 41.5 78 1.7 35
06:05 1017 30.03 846 24.98 5.4 41.7 78 1.8 35.2
06:10 1017 30.03 846 24.98 5.4 41.7 80 2.2 35.9
06:15 1017 30.03 846 24.98 5 41 83 2.4 36.3
06:20 1017 30.03 846 24.98 4.9 40.8 83 2.2 36
06:25 1017 30.03 846 24.98 4.8 40.7 83 2.2 35.9
06:30 1017 30.03 846 24.98 4.8 40.7 83 2.3 36.1
06:35 1017 30.03 846 24.98 4.9 40.8 85 2.5 36.6
06:40 1017 30.03 846 24.98 4.6 40.3 87 2.6 36.7
06:45 1017 30.03 846 24.98 4.8 40.7 85 2.5 36.5
06:50 1017 30.03 846 24.98 4.8 40.6 86 2.6 36.8
06:55 1017 30.03 846 24.98 4.5 40.1 86 2.4 36.4
07:00 1017 30.03 846 24.98 4.8 40.6 86 2.6 36.7
07:05 1017 30.03 846 24.98 4.7 40.5 86 2.6 36.6
07:10 1017 30.03 846 24.98 4.8 40.7 87 2.8 37.1
07:15 1017 30.03 846 24.98 4.7 40.4 88 2.8 37
07:20 1017 30.03 846 24.98 4.7 40.5 88 2.8 37.1
07:25 1017 30.03 846 24.98 4.6 40.4 88 2.8 37.1
07:30 1017 30.03 846 24.98 4.6 40.3 88 2.8 37
07:35 1017 30.03 846 24.98 4.7 40.4 88 2.9 37.1
07:40 1017 30.03 846 24.98 4.7 40.4 88 2.8 37.1
07:45 1017 30.03 846 24.98 4.6 40.3 89 2.9 37.2
07:50 1016 30 846 24.98 4.6 40.3 89 3 37.4
07:55 1016 30 846 24.98 4.6 40.3 89 3 37.4
08:00 1016 30 846 24.98 4.7 40.4 88 2.9 37.1
08:05 1017 30.03 846 24.98 5 41 87 2.9 37.3
08:10 1017 30.03 846 24.98 5.3 41.6 85 3 37.4
08:15 1017 30.03 846 24.98 5.4 41.8 86 3.2 37.8
08:20 1017 30.03 846 24.98 5.3 41.6 87 3.3 37.9
08:25 1017 30.03 846 24.98 5.2 41.4 87 3.3 37.9
08:30 1017 30.03 846 24.98 5.2 41.3 88 3.4 38
08:35 1017 30.03 846 24.98 5.1 41.2 88 3.3 38
08:40 1017 30.03 846 24.98 5 41 88 3.2 37.8
08:45 1017 30.03 846 24.98 5 40.9 89 3.2 37.8
08:50 1017 30.03 846 24.98 5 40.9 89 3.3 37.9
08:55 1017 30.03 846 24.98 5 41 89 3.3 38
09:00 1017 30.03 846 24.98 5 41.1 89 3.4 38.1
09:05 1017 30.03 846 24.98 5.2 41.3 87 3.3 37.9
09:10 1017 30.03 846 24.98 5.3 41.6 87 3.4 38.2
09:15 1017 30.03 846 24.98 5.4 41.8 87 3.5 38.3
09:20 1017 30.03 846 24.98 5.5 41.9 87 3.6 38.4
09:25 1017 30.03 846 24.98 5.7 42.3 86 3.6 38.5
09:30 1017 30.03 846 24.98 5.8 42.4 86 3.6 38.5
09:35 1017 30.03 846 24.98 5.8 42.5 85 3.5 38.4
09:40 1017 30.03 846 24.98 5.9 42.6 85 3.6 38.4
09:45 1017 30.03 846 24.98 6 42.8 86 3.8 38.9
09:50 1017 30.03 846 24.98 6.1 42.9 87 4.1 39.4
09:55 1017 30.03 846 24.98 6.2 43.2 86 4.1 39.4
10:00 1016 30 846 24.98 6.2 43.2 86 4 39.2
10:05 1016 30 846 24.98 6.3 43.3 86 4.2 39.5
10:10 1017 30.03 846 24.98 6.5 43.8 86 4.4 40
10:15 1016 30 846 24.98 6.6 43.9 86 4.4 39.9
10:20 1016 30 846 24.98 6.6 43.9 85 4.3 39.8
10:25 1016 30 846 24.98 6.6 43.8 84 4.1 39.5
10:30 1016 30 845 24.95 6.5 43.8 86 4.4 39.8
10:35 1016 30 845 24.95 6.5 43.8 85 4.2 39.6
10:40 1016 30 845 24.95 6.6 43.9 85 4.3 39.7
10:45 1016 30 845 24.95 6.7 44.1 85 4.4 40
10:50 1016 30 845 24.95 6.9 44.4 84 4.5 40
10:55 1016 30 845 24.95 7.1 44.7 85 4.8 40.6
11:00 1016 30 845 24.95 7.3 45.1 84 4.8 40.7
11:05 1016 30 845 24.95 7.6 45.7 83 5 40.9
11:10 1016 30 845 24.95 8.1 46.5 83 5.4 41.8
11:15 1016 30 845 24.95 8.1 46.6 78 4.6 40.2
11:20 1016 30 845 24.95 8 46.4 79 4.5 40.2
11:25 1016 30 845 24.95 8.3 46.9 79 4.8 40.6
11:30 1016 30 845 24.95 8.5 47.3 78 4.9 40.8
11:35 1016 30 845 24.95 9 48.1 75 4.8 40.6
11:40 1016 30 845 24.95 9.5 49.1 75 5.3 41.5
11:45 1016 30 845 24.95 9.5 49.2 71 4.6 40.2
11:50 1016 30 845 24.95 9.9 49.8 67 4.2 39.5
11:55 1016 30 845 24.95 10 50.1 67 4.2 39.5
12:00 1016 30 845 24.95 10.2 50.4 63 3.5 38.3
12:05 1016 30 845 24.95 10.5 50.8 63 3.8 38.8
12:10 1016 30 845 24.95 10.8 51.4 62 3.9 39
12:15 1016 30 845 24.95 11.3 52.3 56 2.8 37
12:20 1016 30 845 24.95 10.9 51.7 56 2.5 36.4
12:25 1016 30 845 24.95 11 51.8 56 2.7 36.8
12:30 1016 30 845 24.95 11.2 52.2 55 2.5 36.5
12:35 1015 29.97 845 24.95 11.4 52.5 55 2.8 37.1
12:40 1015 29.97 845 24.95 11.9 53.5 52 2.5 36.6
12:45 1015 29.97 845 24.95 13 55.4 50 2.9 37.3
12:50 1015 29.97 844 24.92 12.7 54.9 50 2.7 36.9
12:55 1015 29.97 844 24.92 12.9 55.2 53 3.6 38.4
13:00 1015 29.97 844 24.92 12.5 54.6 50 2.4 36.3
13:05 1015 29.97 844 24.92 11.9 53.4 54 3 37.3
13:10 1015 29.97 844 24.92 11.9 53.4 52 2.5 36.5
13:15 1015 29.97 844 24.92 11.8 53.2 53 2.6 36.8
13:20 1015 29.97 844 24.92 11.9 53.5 52 2.4 36.3
13:25 1015 29.97 844 24.92 12.8 55.1 50 2.6 36.7
13:30 1015 29.97 844 24.92 13.4 56.1 48 2.8 37.1
13:35 1015 29.97 844 24.92 13.7 56.7 47 2.7 36.8
13:40 1015 29.97 844 24.92 14.1 57.4 46 2.7 36.9
13:45 1015 29.97 844 24.92 14.4 58 45 2.7 36.8
13:50 1015 29.97 844 24.92 14.5 58 45 2.9 37.1
13:55 1015 29.97 844 24.92 13.9 57 46 2.6 36.6
14:00 1014 29.94 844 24.92 14.2 57.6 45 2.4 36.3
14:05 1014 29.94 844 24.92 13.6 56.5 47 2.7 36.8
14:10 1014 29.94 844 24.92 13.7 56.7 48 2.8 37.1
14:15 1014 29.94 844 24.92 13.1 55.6 48 2.5 36.4
14:20 1014 29.94 844 24.92 13.7 56.7 46 2.2 36
14:25 1014 29.94 844 24.92 13.8 56.9 47 2.7 36.9
14:30 1014 29.94 844 24.92 14.1 57.4 46 2.6 36.7
14:35 1014 29.94 843 24.89 13.9 57 48 3.1 37.7
14:40 1014 29.94 843 24.89 13.3 56 48 2.5 36.5
14:45 1014 29.94 843 24.89 13.9 57 44 2.1 35.7
14:50 1014 29.94 843 24.89 14 57.3 46 2.7 36.8
14:55 1014 29.94 843 24.89 13.9 57 45 2.4 36.3
15:00 1014 29.94 843 24.89 13.5 56.3 48 2.7 36.9
15:05 1014 29.94 843 24.89 13.1 55.6 49 2.7 36.9
15:10 1014 29.94 843 24.89 12.7 54.8 51 2.8 37
15:15 1014 29.94 843 24.89 12.4 54.3 52 2.8 37.1
15:20 1014 29.94 843 24.89 12.3 54.2 52 2.9 37.3
15:25 1014 29.94 843 24.89 11.8 53.2 55 3 37.5
15:30 1014 29.94 843 24.89 11.8 53.2 54 2.7 36.9
15:35 1014 29.94 843 24.89 11.7 53 54 2.7 36.9
15:40 1014 29.94 843 24.89 11.8 53.2 53 2.7 36.8
15:45 1014 29.94 843 24.89 11.6 52.9 55 2.9 37.3
15:50 1014 29.94 843 24.89 11.4 52.6 55 2.7 36.9
15:55 1014 29.94 843 24.89 11.5 52.7 56 3 37.4
16:00 1014 29.94 843 24.89 11.5 52.8 64 5.1 41.2
16:05 1014 29.94 843 24.89 10.8 51.4 68 5.1 41.1
16:10 1014 29.94 843 24.89 10.5 50.9 67 4.7 40.5
16:15 1014 29.94 843 24.89 10.4 50.7 58 2.6 36.7
16:20 1014 29.94 843 24.89 10.2 50.3 59 2.6 36.7
16:25 1014 29.94 844 24.92 9.6 49.3 69 4.1 39.4
16:30 1015 29.97 844 24.92 7.8 46 74 3.6 38.4
16:35 1015 29.97 844 24.92 6.8 44.2 76 2.9 37.3
16:40 1015 29.97 844 24.92 6.9 44.4 75 2.8 37.1
16:45 1015 29.97 844 24.92 7 44.5 78 3.3 38
16:50 1015 29.97 844 24.92 6.8 44.3 76 2.9 37.3
16:55 1015 29.97 844 24.92 6.8 44.2 77 3.1 37.5
17:00 1015 29.97 844 24.92 6.7 44.1 81 3.7 38.7
17:05 1015 29.97 844 24.92 6.5 43.7 81 3.5 38.4
17:10 1015 29.97 844 24.92 6.4 43.6 80 3.2 37.8
17:15 1015 29.97 844 24.92 6.5 43.7 76 2.5 36.5
17:20 1015 29.97 844 24.92 6.6 43.9 79 3.2 37.7
17:25 1015 29.97 844 24.92 6.2 43.2 86 4 39.3
17:30 1015 29.97 844 24.92 6 42.8 88 4.1 39.4
17:35 1015 29.97 844 24.92 5.8 42.5 88 4 39.3
17:40 1015 29.97 844 24.92 5.8 42.4 88 3.8 38.9
17:45 1015 29.97 844 24.92 5.7 42.3 88 3.9 39
17:50 1015 29.97 844 24.92 5.7 42.3 87 3.8 38.8
17:55 1015 29.97 844 24.92 5.7 42.2 87 3.6 38.5
18:00 1015 29.97 845 24.95 5.7 42.3 89 4 39.2
18:05 1015 29.97 845 24.95 5.7 42.3 87 3.8 38.8
18:10 1016 30 845 24.95 5.8 42.4 89 4 39.3
18:15 1016 30 845 24.95 5.9 42.7 88 4 39.2
18:20 1016 30 845 24.95 5.7 42.3 87 3.8 38.9
18:25 1016 30 845 24.95 5.6 42.1 89 3.9 39
18:30 1016 30 845 24.95 5.5 42 89 3.9 39
18:35 1016 30 845 24.95 5.5 42 90 4 39.2
18:40 1016 30 845 24.95 5.6 42 90 4.1 39.4
18:45 1016 30 845 24.95 5.5 42 90 4.1 39.4
18:50 1016 30 845 24.95 5.4 41.7 90 3.9 39
18:55 1016 30 845 24.95 5.3 41.6 90 3.8 38.8
19:00 1015 29.97 845 24.95 5.3 41.5 90 3.8 38.8
19:05 1015 29.97 845 24.95 5.2 41.3 90 3.7 38.7
19:10 1016 30 845 24.95 5.2 41.3 91 3.8 38.8
19:15 1016 30 845 24.95 5.2 41.3 91 3.8 38.9
19:20 1016 30 845 24.95 5.2 41.4 91 3.8 38.9
19:25 1016 30 845 24.95 5.2 41.4 91 3.8 38.9
19:30 1016 30 845 24.95 5.2 41.4 91 3.8 38.8
19:35 1016 30 845 24.95 5.2 41.4 90 3.8 38.8
19:40 1016 30 845 24.95 5.3 41.6 91 3.9 39.1
19:45 1016 30 845 24.95 5.3 41.6 90 3.8 38.8
19:50 1016 30 845 24.95 5.3 41.5 91 3.9 39
19:55 1016 30 845 24.95 5.3 41.6 92 4.1 39.3
20:00 1016 30 845 24.95 5.4 41.7 91 4.1 39.4
20:05 1016 30 845 24.95 5.4 41.7 91 4.1 39.4
20:10 1016 30 845 24.95 5.3 41.5 92 4.1 39.3
20:15 1016 30 845 24.95 5.3 41.5 92 4.1 39.3
20:20 1016 30 845 24.95 5.2 41.4 92 4 39.3
20:25 1016 30 845 24.95 5.2 41.3 92 4 39.2
20:30 1016 30 845 24.95 5.2 41.4 92 4.1 39.3
20:35 1016 30 845 24.95 5.2 41.4 92 4.1 39.3
20:40 1016 30 845 24.95 5.2 41.4 92 4 39.3
20:45 1016 30 845 24.95 5.2 41.4 92 4 39.3
20:50 1016 30 846 24.98 5.2 41.4 92 4.1 39.3
20:55 1016 30 846 24.98 5.2 41.3 92 4 39.1
21:00 1016 30 846 24.98 5.1 41.1 92 3.8 38.9
21:05 1016 30 846 24.98 5 41 92 3.8 38.8
21:10 1016 30 846 24.98 5 40.9 92 3.8 38.8
21:15 1017 30.03 846 24.98 4.9 40.9 92 3.7 38.7
21:20 1017 30.03 846 24.98 4.9 40.8 92 3.7 38.6
21:25 1017 30.03 846 24.98 4.9 40.7 92 3.6 38.5
21:30 1017 30.03 846 24.98 4.9 40.8 91 3.6 38.4
21:35 1017 30.03 846 24.98 4.8 40.7 91 3.5 38.4
21:40 1017 30.03 846 24.98 4.8 40.6 91 3.5 38.3
21:45 1017 30.03 846 24.98 4.8 40.6 92 3.5 38.3
21:50 1017 30.03 846 24.98 4.8 40.6 92 3.5 38.4
21:55 1017 30.03 846 24.98 4.8 40.6 92 3.6 38.4
22:00 1017 30.03 846 24.98 4.8 40.6 92 3.6 38.4
22:05 1017 30.03 846 24.98 4.8 40.6 91 3.5 38.3
22:10 1017 30.03 846 24.98 4.7 40.5 91 3.4 38.1
22:15 1017 30.03 846 24.98 4.5 40.1 90 3 37.4
22:20 1017 30.03 846 24.98 4.1 39.4 91 2.8 37
22:25 1017 30.03 846 24.98 3.9 39 92 2.7 36.8
22:30 1017 30.03 846 24.98 3.7 38.7 92 2.6 36.6
22:35 1017 30.03 846 24.98 3.6 38.4 92 2.4 36.4
22:40 1017 30.03 846 24.98 3.5 38.3 93 2.4 36.3
22:45 1017 30.03 846 24.98 3.4 38.2 93 2.4 36.3
22:50 1017 30.03 846 24.98 3.3 38 93 2.2 36
22:55 1017 30.03 846 24.98 3.2 37.7 93 2.1 35.8
23:00 1017 30.03 846 24.98 3.2 37.7 93 2.1 35.7
23:05 1017 30.03 846 24.98 3.1 37.6 93 2 35.7
23:10 1017 30.03 846 24.98 3 37.5 92 1.9 35.5
23:15 1017 30.03 846 24.98 2.9 37.3 92 1.7 35.1
23:20 1017 30.03 846 24.98 2.9 37.3 92 1.7 35.1
23:25 1017 30.03 846 24.98 3 37.4 92 1.8 35.2
23:30 1017 30.03 846 24.98 3.1 37.5 91 1.8 35.2
23:35 1017 30.03 846 24.98 3.1 37.7 92 1.9 35.4
23:40 1017 30.03 846 24.98 3.2 37.7 90 1.7 35
23:45 1017 30.03 846 24.98 3.2 37.7 90 1.6 34.9
23:50 1016 30 846 24.98 3.1 37.5 90 1.6 34.9
23:55 1016 30 846 24.98 3.1 37.7 91 1.8 35.2
24:00 1016 30 846 24.98 3.2 37.7 91 1.9 35.4